sensor_id;sensor_type;location;lat;lon;timestamp;P1;durP1;ratioP1;P2;durP2;ratioP2
19802;SDS011;66074;50.764;6.090;2023-02-10T00:03:42;21.58;;;18.88;;
19802;SDS011;66074;50.764;6.090;2023-02-10T00:06:09;22.70;;;20.27;;
19802;SDS011;66074;50.764;6.090;2023-02-10T00:08:36;29.90;;;19.80;;
19802;SDS011;66074;50.764;6.090;2023-02-10T00:11:03;22.92;;;18.58;;
19802;SDS011;66074;50.764;6.090;2023-02-10T00:13:35;24.48;;;19.15;;
19802;SDS011;66074;50.764;6.090;2023-02-10T00:16:03;20.80;;;18.13;;
19802;SDS011;66074;50.764;6.090;2023-02-10T00:18:31;20.67;;;18.52;;
19802;SDS011;66074;50.764;6.090;2023-02-10T00:20:57;20.83;;;18.63;;
19802;SDS011;66074;50.764;6.090;2023-02-10T00:23:34;19.98;;;17.83;;
19802;SDS011;66074;50.764;6.090;2023-02-10T00:26:07;21.55;;;18.25;;
19802;SDS011;66074;50.764;6.090;2023-02-10T00:28:34;21.52;;;18.80;;
19802;SDS011;66074;50.764;6.090;2023-02-10T00:31:07;20.27;;;17.15;;
19802;SDS011;66074;50.764;6.090;2023-02-10T00:33:34;21.23;;;18.38;;
19802;SDS011;66074;50.764;6.090;2023-02-10T00:36:02;19.88;;;17.60;;
19802;SDS011;66074;50.764;6.090;2023-02-10T00:38:29;20.25;;;17.60;;
19802;SDS011;66074;50.764;6.090;2023-02-10T00:41:06;20.27;;;18.08;;
19802;SDS011;66074;50.764;6.090;2023-02-10T00:43:42;22.63;;;18.95;;
19802;SDS011;66074;50.764;6.090;2023-02-10T00:46:09;22.48;;;18.40;;
19802;SDS011;66074;50.764;6.090;2023-02-10T00:48:36;23.02;;;19.27;;
19802;SDS011;66074;50.764;6.090;2023-02-10T00:51:02;19.20;;;17.20;;
19802;SDS011;66074;50.764;6.090;2023-02-10T00:53:28;18.85;;;16.90;;
19802;SDS011;66074;50.764;6.090;2023-02-10T00:55:54;20.30;;;18.17;;
19802;SDS011;66074;50.764;6.090;2023-02-10T00:58:20;20.55;;;18.02;;
19802;SDS011;66074;50.764;6.090;2023-02-10T01:00:45;19.75;;;17.58;;
19802;SDS011;66074;50.764;6.090;2023-02-10T01:03:12;21.65;;;19.45;;
19802;SDS011;66074;50.764;6.090;2023-02-10T01:05:37;20.63;;;18.55;;
19802;SDS011;66074;50.764;6.090;2023-02-10T01:08:03;18.42;;;16.52;;
19802;SDS011;66074;50.764;6.090;2023-02-10T01:10:29;20.58;;;16.50;;
19802;SDS011;66074;50.764;6.090;2023-02-10T01:13:01;18.45;;;16.50;;
19802;SDS011;66074;50.764;6.090;2023-02-10T01:15:28;18.60;;;16.60;;
19802;SDS011;66074;50.764;6.090;2023-02-10T01:17:53;17.33;;;15.52;;
19802;SDS011;66074;50.764;6.090;2023-02-10T01:20:19;19.95;;;17.95;;
19802;SDS011;66074;50.764;6.090;2023-02-10T01:22:45;23.48;;;17.23;;
19802;SDS011;66074;50.764;6.090;2023-02-10T01:25:10;18.83;;;16.38;;
19802;SDS011;66074;50.764;6.090;2023-02-10T01:27:36;19.85;;;17.17;;
19802;SDS011;66074;50.764;6.090;2023-02-10T01:30:02;21.05;;;17.08;;
19802;SDS011;66074;50.764;6.090;2023-02-10T01:32:28;21.00;;;17.58;;
19802;SDS011;66074;50.764;6.090;2023-02-10T01:34:54;17.75;;;15.85;;
19802;SDS011;66074;50.764;6.090;2023-02-10T01:37:20;19.55;;;17.45;;
19802;SDS011;66074;50.764;6.090;2023-02-10T01:39:46;18.73;;;16.73;;
19802;SDS011;66074;50.764;6.090;2023-02-10T01:42:15;19.02;;;17.08;;
19802;SDS011;66074;50.764;6.090;2023-02-10T01:47:07;21.65;;;17.80;;
19802;SDS011;66074;50.764;6.090;2023-02-10T01:49:34;18.52;;;16.52;;
19802;SDS011;66074;50.764;6.090;2023-02-10T01:52:06;24.65;;;18.30;;
19802;SDS011;66074;50.764;6.090;2023-02-10T01:54:41;21.30;;;17.42;;
19802;SDS011;66074;50.764;6.090;2023-02-10T01:57:23;18.42;;;16.42;;
19802;SDS011;66074;50.764;6.090;2023-02-10T01:59:49;19.90;;;16.92;;
19802;SDS011;66074;50.764;6.090;2023-02-10T02:02:14;20.70;;;17.30;;
19802;SDS011;66074;50.764;6.090;2023-02-10T02:04:51;20.92;;;16.95;;
19802;SDS011;66074;50.764;6.090;2023-02-10T02:07:18;18.88;;;16.85;;
19802;SDS011;66074;50.764;6.090;2023-02-10T02:09:48;18.65;;;16.38;;
19802;SDS011;66074;50.764;6.090;2023-02-10T02:15:19;20.80;;;17.00;;
19802;SDS011;66074;50.764;6.090;2023-02-10T02:21:02;19.55;;;17.30;;
19802;SDS011;66074;50.764;6.090;2023-02-10T02:34:49;20.67;;;17.42;;
19802;SDS011;66074;50.764;6.090;2023-02-10T02:37:26;19.85;;;17.67;;
19802;SDS011;66074;50.764;6.090;2023-02-10T02:40:05;22.08;;;17.15;;
19802;SDS011;66074;50.764;6.090;2023-02-10T02:42:31;20.05;;;17.92;;
19802;SDS011;66074;50.764;6.090;2023-02-10T02:44:59;22.50;;;18.38;;
19802;SDS011;66074;50.764;6.090;2023-02-10T02:50:22;21.40;;;17.95;;
19802;SDS011;66074;50.764;6.090;2023-02-10T02:59:31;23.52;;;17.60;;
19802;SDS011;66074;50.764;6.090;2023-02-10T03:02:01;23.50;;;17.38;;
19802;SDS011;66074;50.764;6.090;2023-02-10T03:04:31;18.73;;;16.73;;
19802;SDS011;66074;50.764;6.090;2023-02-10T03:06:59;20.02;;;17.60;;
19802;SDS011;66074;50.764;6.090;2023-02-10T03:09:25;20.42;;;16.65;;
19802;SDS011;66074;50.764;6.090;2023-02-10T03:11:51;21.27;;;17.42;;
19802;SDS011;66074;50.764;6.090;2023-02-10T03:14:17;21.67;;;17.20;;
19802;SDS011;66074;50.764;6.090;2023-02-10T03:16:43;21.30;;;17.83;;
19802;SDS011;66074;50.764;6.090;2023-02-10T03:19:08;20.02;;;17.15;;
19802;SDS011;66074;50.764;6.090;2023-02-10T03:21:34;19.33;;;17.25;;
19802;SDS011;66074;50.764;6.090;2023-02-10T03:24:00;22.08;;;17.58;;
19802;SDS011;66074;50.764;6.090;2023-02-10T03:26:26;20.13;;;17.10;;
19802;SDS011;66074;50.764;6.090;2023-02-10T03:28:53;24.30;;;18.45;;
19802;SDS011;66074;50.764;6.090;2023-02-10T03:31:18;21.73;;;17.88;;
19802;SDS011;66074;50.764;6.090;2023-02-10T03:33:44;22.58;;;18.90;;
19802;SDS011;66074;50.764;6.090;2023-02-10T03:36:10;23.95;;;16.98;;
19802;SDS011;66074;50.764;6.090;2023-02-10T03:38:35;21.40;;;18.13;;
19802;SDS011;66074;50.764;6.090;2023-02-10T03:41:01;22.77;;;18.20;;
19802;SDS011;66074;50.764;6.090;2023-02-10T03:43:27;19.77;;;16.70;;
19802;SDS011;66074;50.764;6.090;2023-02-10T03:45:53;22.52;;;17.42;;
19802;SDS011;66074;50.764;6.090;2023-02-10T03:48:18;23.15;;;16.88;;
19802;SDS011;66074;50.764;6.090;2023-02-10T03:50:44;21.25;;;17.65;;
19802;SDS011;66074;50.764;6.090;2023-02-10T03:53:10;23.52;;;18.15;;
19802;SDS011;66074;50.764;6.090;2023-02-10T03:55:36;23.23;;;17.98;;
19802;SDS011;66074;50.764;6.090;2023-02-10T03:58:02;19.58;;;17.50;;
19802;SDS011;66074;50.764;6.090;2023-02-10T04:00:28;21.20;;;17.92;;
19802;SDS011;66074;50.764;6.090;2023-02-10T04:02:54;21.95;;;17.70;;
19802;SDS011;66074;50.764;6.090;2023-02-10T04:05:20;22.48;;;18.38;;
19802;SDS011;66074;50.764;6.090;2023-02-10T04:07:46;24.45;;;18.98;;
19802;SDS011;66074;50.764;6.090;2023-02-10T04:10:12;23.45;;;19.23;;
19802;SDS011;66074;50.764;6.090;2023-02-10T04:12:37;22.60;;;17.45;;
19802;SDS011;66074;50.764;6.090;2023-02-10T04:15:04;23.23;;;18.23;;
19802;SDS011;66074;50.764;6.090;2023-02-10T04:17:31;28.20;;;18.80;;
19802;SDS011;66074;50.764;6.090;2023-02-10T04:19:56;23.90;;;19.27;;
19802;SDS011;66074;50.764;6.090;2023-02-10T04:22:22;23.30;;;18.75;;
19802;SDS011;66074;50.764;6.090;2023-02-10T04:24:47;23.23;;;19.00;;
19802;SDS011;66074;50.764;6.090;2023-02-10T04:27:13;23.58;;;18.85;;
19802;SDS011;66074;50.764;6.090;2023-02-10T04:29:39;22.92;;;19.70;;
19802;SDS011;66074;50.764;6.090;2023-02-10T04:32:05;23.48;;;20.17;;
19802;SDS011;66074;50.764;6.090;2023-02-10T04:34:32;24.23;;;18.90;;
19802;SDS011;66074;50.764;6.090;2023-02-10T04:36:58;22.90;;;19.23;;
19802;SDS011;66074;50.764;6.090;2023-02-10T04:39:23;23.98;;;20.08;;
19802;SDS011;66074;50.764;6.090;2023-02-10T04:41:49;24.23;;;20.33;;
19802;SDS011;66074;50.764;6.090;2023-02-10T04:44:14;23.38;;;19.92;;
19802;SDS011;66074;50.764;6.090;2023-02-10T04:46:40;23.98;;;19.23;;
19802;SDS011;66074;50.764;6.090;2023-02-10T04:49:05;23.35;;;19.05;;
19802;SDS011;66074;50.764;6.090;2023-02-10T04:51:31;22.83;;;19.38;;
19802;SDS011;66074;50.764;6.090;2023-02-10T04:53:57;21.17;;;18.63;;
19802;SDS011;66074;50.764;6.090;2023-02-10T04:56:22;26.08;;;19.58;;
19802;SDS011;66074;50.764;6.090;2023-02-10T04:58:48;24.30;;;20.90;;
19802;SDS011;66074;50.764;6.090;2023-02-10T05:01:13;26.02;;;20.10;;
19802;SDS011;66074;50.764;6.090;2023-02-10T05:03:39;23.80;;;20.85;;
19802;SDS011;66074;50.764;6.090;2023-02-10T05:06:06;26.00;;;19.63;;
19802;SDS011;66074;50.764;6.090;2023-02-10T05:08:33;25.17;;;20.20;;
19802;SDS011;66074;50.764;6.090;2023-02-10T05:10:59;25.67;;;19.77;;
19802;SDS011;66074;50.764;6.090;2023-02-10T05:13:25;22.48;;;19.73;;
19802;SDS011;66074;50.764;6.090;2023-02-10T05:15:51;25.75;;;21.15;;
19802;SDS011;66074;50.764;6.090;2023-02-10T05:18:16;22.42;;;19.55;;
19802;SDS011;66074;50.764;6.090;2023-02-10T05:20:42;29.80;;;20.15;;
19802;SDS011;66074;50.764;6.090;2023-02-10T05:23:07;23.00;;;20.02;;
19802;SDS011;66074;50.764;6.090;2023-02-10T05:25:33;25.23;;;20.73;;
19802;SDS011;66074;50.764;6.090;2023-02-10T05:27:58;27.38;;;20.88;;
19802;SDS011;66074;50.764;6.090;2023-02-10T05:30:24;27.05;;;21.83;;
19802;SDS011;66074;50.764;6.090;2023-02-10T05:32:50;25.85;;;20.58;;
19802;SDS011;66074;50.764;6.090;2023-02-10T05:35:15;23.63;;;20.15;;
19802;SDS011;66074;50.764;6.090;2023-02-10T05:37:41;24.48;;;20.33;;
19802;SDS011;66074;50.764;6.090;2023-02-10T05:40:07;27.38;;;20.95;;
19802;SDS011;66074;50.764;6.090;2023-02-10T05:42:32;24.83;;;21.73;;
19802;SDS011;66074;50.764;6.090;2023-02-10T05:44:58;25.23;;;20.70;;
19802;SDS011;66074;50.764;6.090;2023-02-10T05:47:24;23.85;;;19.75;;
19802;SDS011;66074;50.764;6.090;2023-02-10T05:49:49;26.95;;;20.52;;
19802;SDS011;66074;50.764;6.090;2023-02-10T05:52:15;30.50;;;22.52;;
19802;SDS011;66074;50.764;6.090;2023-02-10T05:54:40;28.63;;;21.08;;
19802;SDS011;66074;50.764;6.090;2023-02-10T05:57:06;24.15;;;20.75;;
19802;SDS011;66074;50.764;6.090;2023-02-10T05:59:32;26.90;;;21.17;;
19802;SDS011;66074;50.764;6.090;2023-02-10T06:01:58;26.45;;;22.08;;
19802;SDS011;66074;50.764;6.090;2023-02-10T06:04:23;24.98;;;20.52;;
19802;SDS011;66074;50.764;6.090;2023-02-10T06:06:50;27.33;;;22.95;;
19802;SDS011;66074;50.764;6.090;2023-02-10T06:09:15;26.40;;;22.08;;
19802;SDS011;66074;50.764;6.090;2023-02-10T06:11:41;28.27;;;21.45;;
19802;SDS011;66074;50.764;6.090;2023-02-10T06:14:07;28.17;;;21.73;;
19802;SDS011;66074;50.764;6.090;2023-02-10T06:16:32;26.58;;;20.52;;
19802;SDS011;66074;50.764;6.090;2023-02-10T06:18:58;27.05;;;22.88;;
19802;SDS011;66074;50.764;6.090;2023-02-10T06:21:24;24.50;;;21.20;;
19802;SDS011;66074;50.764;6.090;2023-02-10T06:23:50;28.77;;;22.30;;
19802;SDS011;66074;50.764;6.090;2023-02-10T06:26:16;26.27;;;20.95;;
19802;SDS011;66074;50.764;6.090;2023-02-10T06:28:42;25.48;;;19.95;;
19802;SDS011;66074;50.764;6.090;2023-02-10T06:31:08;23.70;;;20.17;;
19802;SDS011;66074;50.764;6.090;2023-02-10T06:33:34;30.05;;;23.77;;
19802;SDS011;66074;50.764;6.090;2023-02-10T06:36:00;25.95;;;21.08;;
19802;SDS011;66074;50.764;6.090;2023-02-10T06:38:30;29.98;;;23.70;;
19802;SDS011;66074;50.764;6.090;2023-02-10T06:40:59;27.48;;;22.02;;
19802;SDS011;66074;50.764;6.090;2023-02-10T06:43:24;25.58;;;21.25;;
19802;SDS011;66074;50.764;6.090;2023-02-10T06:45:50;28.38;;;22.88;;
19802;SDS011;66074;50.764;6.090;2023-02-10T06:48:16;27.48;;;22.95;;
19802;SDS011;66074;50.764;6.090;2023-02-10T06:50:41;31.70;;;23.83;;
19802;SDS011;66074;50.764;6.090;2023-02-10T06:53:07;27.48;;;22.40;;
19802;SDS011;66074;50.764;6.090;2023-02-10T06:55:33;27.52;;;21.63;;
19802;SDS011;66074;50.764;6.090;2023-02-10T06:58:00;28.40;;;24.10;;
19802;SDS011;66074;50.764;6.090;2023-02-10T07:00:26;29.60;;;22.60;;
19802;SDS011;66074;50.764;6.090;2023-02-10T07:02:52;28.42;;;22.95;;
19802;SDS011;66074;50.764;6.090;2023-02-10T07:05:17;35.08;;;24.45;;
19802;SDS011;66074;50.764;6.090;2023-02-10T07:07:43;31.05;;;22.70;;
19802;SDS011;66074;50.764;6.090;2023-02-10T07:10:09;28.63;;;23.50;;
19802;SDS011;66074;50.764;6.090;2023-02-10T07:12:36;27.75;;;22.50;;
19802;SDS011;66074;50.764;6.090;2023-02-10T07:15:02;29.80;;;23.60;;
19802;SDS011;66074;50.764;6.090;2023-02-10T07:17:27;28.42;;;22.77;;
19802;SDS011;66074;50.764;6.090;2023-02-10T07:19:53;28.05;;;22.17;;
19802;SDS011;66074;50.764;6.090;2023-02-10T07:22:19;29.25;;;21.10;;
19802;SDS011;66074;50.764;6.090;2023-02-10T07:24:45;31.85;;;21.70;;
19802;SDS011;66074;50.764;6.090;2023-02-10T07:27:11;27.92;;;22.80;;
19802;SDS011;66074;50.764;6.090;2023-02-10T07:29:36;27.25;;;22.63;;
19802;SDS011;66074;50.764;6.090;2023-02-10T07:32:02;27.42;;;22.52;;
19802;SDS011;66074;50.764;6.090;2023-02-10T07:34:28;32.53;;;24.70;;
19802;SDS011;66074;50.764;6.090;2023-02-10T07:36:56;28.48;;;24.02;;
19802;SDS011;66074;50.764;6.090;2023-02-10T07:39:24;30.73;;;24.92;;
19802;SDS011;66074;50.764;6.090;2023-02-10T07:41:50;30.45;;;22.15;;
19802;SDS011;66074;50.764;6.090;2023-02-10T07:44:16;27.02;;;22.02;;
19802;SDS011;66074;50.764;6.090;2023-02-10T07:46:42;28.92;;;24.17;;
19802;SDS011;66074;50.764;6.090;2023-02-10T07:49:08;26.90;;;22.35;;
19802;SDS011;66074;50.764;6.090;2023-02-10T07:51:34;29.75;;;21.60;;
19802;SDS011;66074;50.764;6.090;2023-02-10T07:54:00;26.20;;;21.45;;
19802;SDS011;66074;50.764;6.090;2023-02-10T07:56:26;32.22;;;24.02;;
19802;SDS011;66074;50.764;6.090;2023-02-10T07:58:51;33.47;;;23.83;;
19802;SDS011;66074;50.764;6.090;2023-02-10T08:01:17;33.17;;;23.35;;
19802;SDS011;66074;50.764;6.090;2023-02-10T08:03:42;30.65;;;23.25;;
19802;SDS011;66074;50.764;6.090;2023-02-10T08:06:08;30.92;;;23.88;;
19802;SDS011;66074;50.764;6.090;2023-02-10T08:08:34;29.60;;;23.63;;
19802;SDS011;66074;50.764;6.090;2023-02-10T08:11:02;29.20;;;23.10;;
19802;SDS011;66074;50.764;6.090;2023-02-10T08:13:31;32.22;;;24.35;;
19802;SDS011;66074;50.764;6.090;2023-02-10T08:15:57;30.75;;;24.00;;
19802;SDS011;66074;50.764;6.090;2023-02-10T08:18:23;31.70;;;25.95;;
19802;SDS011;66074;50.764;6.090;2023-02-10T08:20:49;29.25;;;23.67;;
19802;SDS011;66074;50.764;6.090;2023-02-10T08:23:15;30.35;;;23.45;;
19802;SDS011;66074;50.764;6.090;2023-02-10T08:25:42;32.60;;;24.55;;
19802;SDS011;66074;50.764;6.090;2023-02-10T08:28:07;32.53;;;24.63;;
19802;SDS011;66074;50.764;6.090;2023-02-10T08:30:33;36.47;;;26.42;;
19802;SDS011;66074;50.764;6.090;2023-02-10T08:32:59;35.83;;;25.70;;
19802;SDS011;66074;50.764;6.090;2023-02-10T08:35:25;31.48;;;24.08;;
19802;SDS011;66074;50.764;6.090;2023-02-10T08:37:51;33.63;;;24.55;;
19802;SDS011;66074;50.764;6.090;2023-02-10T08:40:17;34.35;;;24.77;;
19802;SDS011;66074;50.764;6.090;2023-02-10T08:42:42;32.92;;;25.10;;
19802;SDS011;66074;50.764;6.090;2023-02-10T08:45:09;36.25;;;25.83;;
19802;SDS011;66074;50.764;6.090;2023-02-10T08:47:35;29.77;;;25.05;;
19802;SDS011;66074;50.764;6.090;2023-02-10T08:50:01;34.25;;;24.65;;
19802;SDS011;66074;50.764;6.090;2023-02-10T08:52:27;33.55;;;23.55;;
19802;SDS011;66074;50.764;6.090;2023-02-10T08:54:52;28.58;;;23.23;;
19802;SDS011;66074;50.764;6.090;2023-02-10T08:57:18;28.35;;;22.83;;
19802;SDS011;66074;50.764;6.090;2023-02-10T08:59:44;31.27;;;24.05;;
19802;SDS011;66074;50.764;6.090;2023-02-10T09:02:11;31.70;;;23.95;;
19802;SDS011;66074;50.764;6.090;2023-02-10T09:04:37;30.25;;;22.95;;
19802;SDS011;66074;50.764;6.090;2023-02-10T09:07:03;27.55;;;21.48;;
19802;SDS011;66074;50.764;6.090;2023-02-10T09:09:29;29.80;;;23.70;;
19802;SDS011;66074;50.764;6.090;2023-02-10T09:11:55;26.92;;;21.77;;
19802;SDS011;66074;50.764;6.090;2023-02-10T09:14:21;29.42;;;24.42;;
19802;SDS011;66074;50.764;6.090;2023-02-10T09:16:47;30.52;;;24.02;;
19802;SDS011;66074;50.764;6.090;2023-02-10T09:19:15;28.60;;;23.73;;
19802;SDS011;66074;50.764;6.090;2023-02-10T09:21:41;28.77;;;22.55;;
19802;SDS011;66074;50.764;6.090;2023-02-10T09:24:06;29.95;;;24.13;;
19802;SDS011;66074;50.764;6.090;2023-02-10T09:26:32;26.80;;;22.92;;
19802;SDS011;66074;50.764;6.090;2023-02-10T09:28:57;28.15;;;21.38;;
19802;SDS011;66074;50.764;6.090;2023-02-10T09:31:23;30.23;;;22.83;;
19802;SDS011;66074;50.764;6.090;2023-02-10T09:33:49;29.83;;;23.05;;
19802;SDS011;66074;50.764;6.090;2023-02-10T09:36:15;27.52;;;22.02;;
19802;SDS011;66074;50.764;6.090;2023-02-10T09:38:42;26.63;;;21.40;;
19802;SDS011;66074;50.764;6.090;2023-02-10T09:52:22;25.40;;;20.88;;
19802;SDS011;66074;50.764;6.090;2023-02-10T09:54:50;24.90;;;20.02;;
19802;SDS011;66074;50.764;6.090;2023-02-10T09:57:18;23.05;;;18.27;;
19802;SDS011;66074;50.764;6.090;2023-02-10T09:59:55;21.45;;;17.20;;
19802;SDS011;66074;50.764;6.090;2023-02-10T10:02:34;19.40;;;16.40;;
19802;SDS011;66074;50.764;6.090;2023-02-10T10:05:18;19.05;;;16.90;;
19802;SDS011;66074;50.764;6.090;2023-02-10T10:07:53;19.65;;;15.98;;
19802;SDS011;66074;50.764;6.090;2023-02-10T10:10:35;20.85;;;15.77;;
19802;SDS011;66074;50.764;6.090;2023-02-10T10:13:10;18.27;;;15.60;;
19802;SDS011;66074;50.764;6.090;2023-02-10T10:15:53;18.58;;;16.25;;
19802;SDS011;66074;50.764;6.090;2023-02-10T10:19:45;18.38;;;16.23;;
19802;SDS011;66074;50.764;6.090;2023-02-10T10:27:16;20.38;;;15.90;;
19802;SDS011;66074;50.764;6.090;2023-02-10T10:32:17;16.40;;;14.68;;
19802;SDS011;66074;50.764;6.090;2023-02-10T10:34:53;19.70;;;14.95;;
19802;SDS011;66074;50.764;6.090;2023-02-10T10:37:21;16.48;;;14.68;;
19802;SDS011;66074;50.764;6.090;2023-02-10T10:39:49;15.88;;;13.38;;
19802;SDS011;66074;50.764;6.090;2023-02-10T10:42:49;16.35;;;13.50;;
19802;SDS011;66074;50.764;6.090;2023-02-10T10:45:21;14.45;;;12.95;;
19802;SDS011;66074;50.764;6.090;2023-02-10T10:50:59;18.35;;;14.25;;
19802;SDS011;66074;50.764;6.090;2023-02-10T10:59:12;17.92;;;13.68;;
19802;SDS011;66074;50.764;6.090;2023-02-10T11:01:39;15.85;;;12.90;;
19802;SDS011;66074;50.764;6.090;2023-02-10T11:04:17;16.25;;;14.05;;
19802;SDS011;66074;50.764;6.090;2023-02-10T11:06:43;18.77;;;14.85;;
19802;SDS011;66074;50.764;6.090;2023-02-10T11:11:48;17.77;;;15.50;;
19802;SDS011;66074;50.764;6.090;2023-02-10T11:14:24;16.40;;;14.77;;
19802;SDS011;66074;50.764;6.090;2023-02-10T11:16:56;16.17;;;14.43;;
19802;SDS011;66074;50.764;6.090;2023-02-10T11:19:27;13.38;;;12.07;;
19802;SDS011;66074;50.764;6.090;2023-02-10T11:21:55;14.55;;;12.85;;
19802;SDS011;66074;50.764;6.090;2023-02-10T11:24:28;13.50;;;11.63;;
19802;SDS011;66074;50.764;6.090;2023-02-10T11:27:04;15.15;;;12.68;;
19802;SDS011;66074;50.764;6.090;2023-02-10T11:29:39;15.73;;;14.13;;
19802;SDS011;66074;50.764;6.090;2023-02-10T11:32:20;14.68;;;13.07;;
19802;SDS011;66074;50.764;6.090;2023-02-10T11:34:53;14.85;;;13.35;;
19802;SDS011;66074;50.764;6.090;2023-02-10T11:37:32;14.77;;;12.10;;
19802;SDS011;66074;50.764;6.090;2023-02-10T11:40:01;14.80;;;12.18;;
19802;SDS011;66074;50.764;6.090;2023-02-10T11:42:31;19.08;;;12.25;;
19802;SDS011;66074;50.764;6.090;2023-02-10T11:44:59;15.38;;;12.40;;
19802;SDS011;66074;50.764;6.090;2023-02-10T11:47:41;13.93;;;12.48;;
19802;SDS011;66074;50.764;6.090;2023-02-10T11:50:18;16.25;;;14.52;;
19802;SDS011;66074;50.764;6.090;2023-02-10T11:52:49;15.15;;;13.65;;
19802;SDS011;66074;50.764;6.090;2023-02-10T11:55:15;19.90;;;14.93;;
19802;SDS011;66074;50.764;6.090;2023-02-10T11:57:48;20.02;;;14.77;;
19802;SDS011;66074;50.764;6.090;2023-02-10T12:01:01;14.70;;;12.82;;
19802;SDS011;66074;50.764;6.090;2023-02-10T12:25:07;17.60;;;14.77;;
19802;SDS011;66074;50.764;6.090;2023-02-10T12:30:57;15.55;;;13.93;;
19802;SDS011;66074;50.764;6.090;2023-02-10T12:42:16;16.17;;;14.50;;
19802;SDS011;66074;50.764;6.090;2023-02-10T12:50:33;15.82;;;13.57;;
19802;SDS011;66074;50.764;6.090;2023-02-10T12:53:37;15.10;;;12.38;;
19802;SDS011;66074;50.764;6.090;2023-02-10T12:56:09;14.55;;;12.38;;
19802;SDS011;66074;50.764;6.090;2023-02-10T12:58:45;14.43;;;12.05;;
19802;SDS011;66074;50.764;6.090;2023-02-10T13:01:15;14.38;;;11.88;;
19802;SDS011;66074;50.764;6.090;2023-02-10T13:04:16;13.55;;;11.95;;
19802;SDS011;66074;50.764;6.090;2023-02-10T13:06:59;14.88;;;12.80;;
19802;SDS011;66074;50.764;6.090;2023-02-10T13:09:30;14.73;;;13.05;;
19802;SDS011;66074;50.764;6.090;2023-02-10T13:12:15;13.60;;;11.88;;
19802;SDS011;66074;50.764;6.090;2023-02-10T13:14:46;13.85;;;12.18;;
19802;SDS011;66074;50.764;6.090;2023-02-10T13:17:16;16.33;;;14.00;;
19802;SDS011;66074;50.764;6.090;2023-02-10T13:20:02;14.75;;;13.02;;
19802;SDS011;66074;50.764;6.090;2023-02-10T13:22:55;16.70;;;14.18;;
19802;SDS011;66074;50.764;6.090;2023-02-10T13:35:50;14.80;;;11.90;;
19802;SDS011;66074;50.764;6.090;2023-02-10T13:38:19;18.15;;;13.23;;
19802;SDS011;66074;50.764;6.090;2023-02-10T13:43:30;15.60;;;12.70;;
19802;SDS011;66074;50.764;6.090;2023-02-10T13:45:57;16.08;;;12.80;;
19802;SDS011;66074;50.764;6.090;2023-02-10T13:48:25;14.88;;;13.15;;
19802;SDS011;66074;50.764;6.090;2023-02-10T13:50:57;14.60;;;12.93;;
19802;SDS011;66074;50.764;6.090;2023-02-10T13:58:52;13.73;;;10.55;;
19802;SDS011;66074;50.764;6.090;2023-02-10T14:04:00;11.27;;;9.88;;
19802;SDS011;66074;50.764;6.090;2023-02-10T14:06:39;11.00;;;9.50;;
19802;SDS011;66074;50.764;6.090;2023-02-10T14:09:17;11.75;;;10.48;;
19802;SDS011;66074;50.764;6.090;2023-02-10T14:11:55;10.88;;;9.15;;
19802;SDS011;66074;50.764;6.090;2023-02-10T14:14:37;10.13;;;9.13;;
19802;SDS011;66074;50.764;6.090;2023-02-10T14:19:32;11.60;;;9.20;;
19802;SDS011;66074;50.764;6.090;2023-02-10T14:22:02;11.13;;;9.18;;
19802;SDS011;66074;50.764;6.090;2023-02-10T14:24:31;10.75;;;9.45;;
19802;SDS011;66074;50.764;6.090;2023-02-10T14:27:01;12.15;;;9.75;;
19802;SDS011;66074;50.764;6.090;2023-02-10T14:29:29;11.85;;;9.70;;
19802;SDS011;66074;50.764;6.090;2023-02-10T14:31:58;10.10;;;9.00;;
19802;SDS011;66074;50.764;6.090;2023-02-10T14:34:31;10.80;;;9.68;;
19802;SDS011;66074;50.764;6.090;2023-02-10T14:37:00;10.35;;;9.25;;
19802;SDS011;66074;50.764;6.090;2023-02-10T14:39:50;11.02;;;9.15;;
19802;SDS011;66074;50.764;6.090;2023-02-10T14:42:23;9.95;;;8.20;;
19802;SDS011;66074;50.764;6.090;2023-02-10T14:44:53;12.38;;;8.35;;
19802;SDS011;66074;50.764;6.090;2023-02-10T14:47:35;9.40;;;8.15;;
19802;SDS011;66074;50.764;6.090;2023-02-10T14:50:03;10.00;;;8.13;;
19802;SDS011;66074;50.764;6.090;2023-02-10T14:52:34;12.50;;;8.88;;
19802;SDS011;66074;50.764;6.090;2023-02-10T14:55:17;9.52;;;8.60;;
19802;SDS011;66074;50.764;6.090;2023-02-10T14:57:47;10.13;;;8.90;;
19802;SDS011;66074;50.764;6.090;2023-02-10T15:00:14;8.60;;;7.80;;
19802;SDS011;66074;50.764;6.090;2023-02-10T15:02:40;10.95;;;8.73;;
19802;SDS011;66074;50.764;6.090;2023-02-10T15:05:16;10.82;;;9.45;;
19802;SDS011;66074;50.764;6.090;2023-02-10T15:07:45;12.88;;;9.10;;
19802;SDS011;66074;50.764;6.090;2023-02-10T15:10:23;11.32;;;9.80;;
19802;SDS011;66074;50.764;6.090;2023-02-10T15:12:54;12.02;;;10.80;;
19802;SDS011;66074;50.764;6.090;2023-02-10T15:15:37;12.48;;;11.18;;
19802;SDS011;66074;50.764;6.090;2023-02-10T15:20:35;14.45;;;11.93;;
19802;SDS011;66074;50.764;6.090;2023-02-10T15:30:55;14.88;;;12.80;;
19802;SDS011;66074;50.764;6.090;2023-02-10T15:36:26;16.50;;;12.07;;
19802;SDS011;66074;50.764;6.090;2023-02-10T15:38:59;17.13;;;13.57;;
19802;SDS011;66074;50.764;6.090;2023-02-10T15:41:31;15.93;;;13.70;;
19802;SDS011;66074;50.764;6.090;2023-02-10T15:46:43;15.70;;;13.20;;
19802;SDS011;66074;50.764;6.090;2023-02-10T15:49:10;14.38;;;12.88;;
19802;SDS011;66074;50.764;6.090;2023-02-10T15:51:47;15.50;;;12.90;;
19802;SDS011;66074;50.764;6.090;2023-02-10T15:54:15;14.43;;;12.40;;
19802;SDS011;66074;50.764;6.090;2023-02-10T15:56:56;15.30;;;13.45;;
19802;SDS011;66074;50.764;6.090;2023-02-10T15:59:24;16.60;;;12.93;;
19802;SDS011;66074;50.764;6.090;2023-02-10T16:01:55;18.08;;;14.13;;
19802;SDS011;66074;50.764;6.090;2023-02-10T16:04:25;20.67;;;14.05;;
19802;SDS011;66074;50.764;6.090;2023-02-10T16:06:54;16.17;;;13.55;;
19802;SDS011;66074;50.764;6.090;2023-02-10T16:09:24;16.45;;;14.75;;
19802;SDS011;66074;50.764;6.090;2023-02-10T16:11:49;17.92;;;14.77;;
19802;SDS011;66074;50.764;6.090;2023-02-10T16:14:15;20.38;;;15.93;;
19802;SDS011;66074;50.764;6.090;2023-02-10T16:16:45;20.13;;;15.43;;
19802;SDS011;66074;50.764;6.090;2023-02-10T16:19:20;20.50;;;15.30;;
19802;SDS011;66074;50.764;6.090;2023-02-10T16:21:48;23.48;;;15.88;;
19802;SDS011;66074;50.764;6.090;2023-02-10T16:24:18;23.10;;;14.75;;
19802;SDS011;66074;50.764;6.090;2023-02-10T16:26:45;18.52;;;14.95;;
19802;SDS011;66074;50.764;6.090;2023-02-10T16:29:21;18.77;;;14.63;;
19802;SDS011;66074;50.764;6.090;2023-02-10T16:31:48;20.73;;;15.50;;
19802;SDS011;66074;50.764;6.090;2023-02-10T16:34:14;19.92;;;15.80;;
19802;SDS011;66074;50.764;6.090;2023-02-10T16:36:40;18.08;;;15.65;;
19802;SDS011;66074;50.764;6.090;2023-02-10T16:39:14;18.92;;;15.65;;
19802;SDS011;66074;50.764;6.090;2023-02-10T16:41:42;18.80;;;15.50;;
19802;SDS011;66074;50.764;6.090;2023-02-10T16:44:09;21.60;;;15.90;;
19802;SDS011;66074;50.764;6.090;2023-02-10T16:46:35;19.17;;;15.65;;
19802;SDS011;66074;50.764;6.090;2023-02-10T16:49:02;20.85;;;16.85;;
19802;SDS011;66074;50.764;6.090;2023-02-10T16:51:28;18.45;;;15.85;;
19802;SDS011;66074;50.764;6.090;2023-02-10T16:53:53;21.50;;;16.83;;
19802;SDS011;66074;50.764;6.090;2023-02-10T16:56:20;21.77;;;16.83;;